Orleans, France

6:02 AM CEST on August 31, 2014 (GMT +0200)
Bricy Air Base | Change Station
CLOSE
Current Station
Airport
Location: Orleans,
Elevation: 410 ft
Nearby Weather Stations

Elev 410 ft 47.98 °N, 1.78 °E | Updated 32 minutes ago

Scattered Clouds
Scattered Clouds
55 °F
Feels Like 55 °F
N
5
Wind Variable Wind from WNW

Today
High -- | Low -- °F
--% Chance of Precip.
Yesterday
High -- | Low -- °F
Precip. -- in
7:09 AM 8:36 PM
Waxing Crescent, 27% visible
Pressure 30.06 in
Visibility 6.2 miles
Clouds Few 3700 ft
Scattered Clouds 4700 ft
Dew Point 54 °F
Humidity 94%
Rainfall 0.00 in
Snow Depth Not available.
UV 0 out of 12
Pollen Not available.
Air Quality Not available.
Flu Activity Not available.
METAR LFOJ 310330Z AUTO 29004KT 9999 FEW037 SCT047 13/12 Q1018

More Conditions Fewer Conditions

Pressure 30.06 in
Visibility 6.2 miles
Clouds Few 3700 ft
Scattered Clouds 4700 ft
Dew Point 54 °F
Humidity 94%
Rainfall 0.00 in
Snow Depth Not available.
UV 0 out of 12
Pollen Not available.
Air Quality Not available.
Flu Activity Not available.
METAR LFOJ 310330Z AUTO 29004KT 9999 FEW037 SCT047 13/12 Q1018

More Conditions Fewer Conditions

10-Day Weather Forecast

Almanac

Astronomy

Aug. 31, 2014 Rise Set
Actual Time 7:09 AM CEST 8:36 PM CEST
Civil Twilight 6:37 AM CEST 9:08 PM CEST
Nautical Twilight 5:57 AM CEST 9:47 PM CEST
Astronomical Twilight 5:15 AM CEST 10:29 PM CEST
Moon 1:07 PM CEST 11:12 PM CEST
Length of Visible Light 14h 31m
Length of Day
13h 27m
Tomorrow will be 3m 21s shorter.
Waxing Crescent, 27% of the Moon is Illuminated
Today
Waxing Crescent
Sep 2
First Quarter
Sep 8
Full
Sep 15
Last Quarter
Sep 24
New

Yesterday's Extremes

Country Highs Country Lows

Community

WunderPhotos

Upload Photos

1,748,777 photos uploaded!

Nearby

Snow Depth

Not available.

Earthquake Activity

City Distance Mag. Time & Date
No recent earthquake activity has been reported nearby.
Minimum magnitude displayed is 2.5.

Coastal Water Temperatures

Place Temperature
No Stations Reporting

Nearby Weather Stations